Terminal Aerodrome Forecast
Issued by NWS

Home | Current Version | Previous Version | Graphics & Text | Print | Product List | Glossary On
Versions: 1 2 3 4 5 6 7 8 9 10 11 12 13 14 15
046
FTUS43 KMPX 231133
TAFRWF
TAF
KRWF 231133Z 2312/2412 33006KT P6SM VCSH SCT012 BKN035
      TEMPO 2312/2316 BKN012
     FM231600 35009KT P6SM -SHRA SCT015 OVC025
     FM231900 35010KT P6SM VCSH OVC040
     FM240000 36008KT P6SM OVC050=

USA.gov is the U.S. government's official web portal to all federal, state and local government web resources and services.